createdAt,value
2022-11-10T00:04:19.329Z,0.85
2022-11-10T00:10:02.309Z,0.70
2022-11-10T00:16:01.337Z,0.98
2022-11-10T00:21:44.352Z,0.80
2022-11-10T00:27:27.321Z,0.90
2022-11-10T00:33:13.425Z,0.82
2022-11-10T00:38:56.337Z,0.90
2022-11-10T00:44:39.322Z,1.10
2022-11-10T00:50:25.350Z,0.80
2022-11-10T00:56:08.334Z,0.70
2022-11-10T01:01:51.380Z,0.90
2022-11-10T01:07:37.346Z,0.80
2022-11-10T01:13:20.589Z,1.10
2022-11-10T01:19:07.344Z,0.90
2022-11-10T01:24:53.374Z,0.75
2022-11-10T01:30:36.341Z,0.70
2022-11-10T01:36:21.345Z,1.05
2022-11-10T01:42:08.367Z,0.90
2022-11-10T01:47:51.380Z,0.82
2022-11-10T01:53:38.386Z,1.10
2022-11-10T01:59:28.397Z,1.00
2022-11-10T02:05:13.397Z,0.90
2022-11-10T02:10:56.449Z,0.88
2022-11-10T02:16:44.402Z,1.00
2022-11-10T02:22:30.365Z,0.77
2022-11-10T02:28:19.369Z,0.80
2022-11-10T02:34:03.449Z,0.73
2022-11-10T02:39:48.493Z,1.00
2022-11-10T02:45:31.414Z,0.88
2022-11-10T02:51:15.432Z,0.90
2022-11-10T02:57:02.396Z,0.80
2022-11-10T03:02:45.479Z,0.88
2022-11-10T03:08:28.432Z,0.90
2022-11-10T03:14:14.431Z,1.10
2022-11-10T03:19:57.401Z,1.05
2022-11-10T03:25:41.427Z,0.95
2022-11-10T03:31:33.429Z,0.90
2022-11-10T03:42:59.429Z,1.05
2022-11-10T03:48:51.857Z,1.10
2022-11-10T03:54:37.443Z,1.05
2022-11-10T04:00:23.439Z,1.10
2022-11-10T04:06:21.698Z,1.00
2022-11-10T04:12:20.710Z,1.17
2022-11-10T04:24:13.483Z,1.08
2022-11-10T04:29:56.434Z,1.23
2022-11-10T04:35:39.496Z,1.15
2022-11-10T04:41:25.444Z,1.08
2022-11-10T04:47:11.789Z,1.20
2022-11-10T04:52:54.492Z,1.27
2022-11-10T04:58:40.508Z,1.15
2022-11-10T05:04:24.229Z,1.05
2022-11-10T05:10:07.483Z,1.17
2022-11-10T05:15:53.470Z,1.30
2022-11-10T05:21:37.479Z,1.27
2022-11-10T05:27:20.501Z,1.13
2022-11-10T05:33:12.589Z,1.17
2022-11-10T05:38:55.491Z,1.20
2022-11-10T05:44:38.522Z,1.30
2022-11-10T05:50:24.487Z,1.20
2022-11-10T05:56:07.490Z,1.23
2022-11-10T06:01:50.505Z,1.13
2022-11-10T06:07:35.507Z,1.13
2022-11-10T06:13:19.646Z,1.52
2022-11-10T06:19:08.537Z,1.45
2022-11-10T06:24:54.538Z,1.27
2022-11-10T06:30:45.659Z,1.50
2022-11-10T06:36:28.502Z,1.33
2022-11-10T06:42:14.514Z,1.35
2022-11-10T06:47:57.521Z,1.17
2022-11-10T06:53:40.509Z,1.38
2022-11-10T06:59:26.591Z,1.48
2022-11-10T07:05:09.533Z,1.60
2022-11-10T07:10:52.535Z,1.20
2022-11-10T07:16:37.555Z,1.48
2022-11-10T07:22:21.526Z,1.30
2022-11-10T07:28:09.518Z,1.50
2022-11-10T07:33:55.547Z,1.25
2022-11-10T07:39:38.534Z,1.40
2022-11-10T07:45:27.525Z,1.92
2022-11-10T07:51:13.544Z,1.52
2022-11-10T07:56:56.570Z,1.40
2022-11-10T08:02:39.546Z,1.35
2022-11-10T08:08:25.574Z,1.50
2022-11-10T08:14:09.552Z,1.42
2022-11-10T08:19:52.536Z,1.42
2022-11-10T08:25:39.570Z,1.50
2022-11-10T08:31:28.550Z,1.00
2022-11-10T08:37:11.580Z,1.10
2022-11-10T08:42:57.563Z,1.30
2022-11-10T08:48:40.571Z,1.17
2022-11-10T08:54:23.584Z,1.20
2022-11-10T09:00:09.609Z,1.13
2022-11-10T09:05:58.064Z,1.23
2022-11-10T09:11:41.561Z,1.42
2022-11-10T09:17:27.585Z,1.30
2022-11-10T09:23:14.623Z,1.35
2022-11-10T09:28:57.694Z,1.27
2022-11-10T09:34:46.637Z,1.38
2022-11-10T09:40:37.590Z,1.40
2022-11-10T09:46:27.727Z,1.38
2022-11-10T09:52:15.628Z,1.17
2022-11-10T09:58:03.590Z,1.05
2022-11-10T10:03:48.806Z,1.20
2022-11-10T10:09:43.613Z,1.30
2022-11-10T10:15:44.610Z,1.40
2022-11-10T10:21:48.605Z,1.43
2022-11-10T10:27:37.672Z,1.50
2022-11-10T10:33:32.661Z,1.30
2022-11-10T10:39:22.658Z,1.40
2022-11-10T10:45:38.672Z,1.20
2022-11-10T10:51:37.649Z,1.30
2022-11-10T10:57:35.648Z,1.20
2022-11-10T11:03:33.696Z,1.30
2022-11-10T11:09:21.650Z,1.20
2022-11-10T11:15:21.644Z,1.17
2022-11-10T11:21:15.631Z,1.02
2022-11-10T11:27:05.702Z,1.23
2022-11-10T11:33:13.663Z,1.10
2022-11-10T11:39:08.775Z,1.08
2022-11-10T11:45:11.667Z,1.02
2022-11-10T11:51:04.693Z,1.30
2022-11-10T11:56:56.667Z,1.30
2022-11-10T12:03:20.700Z,1.30
2022-11-10T12:09:11.681Z,1.20
2022-11-10T12:15:03.652Z,1.30
2022-11-10T12:20:58.682Z,1.20
2022-11-10T12:26:49.800Z,1.10
2022-11-10T12:32:49.687Z,1.30
2022-11-10T12:38:40.701Z,1.08
2022-11-10T12:44:33.889Z,1.08
2022-11-10T12:50:34.689Z,1.17
2022-11-10T12:56:22.693Z,0.93
2022-11-10T13:02:11.726Z,1.60
2022-11-10T13:07:58.729Z,1.60
2022-11-10T13:13:59.449Z,1.40
2022-11-10T13:20:27.888Z,1.10
2022-11-10T13:26:14.713Z,1.30
2022-11-10T13:32:12.711Z,1.30
2022-11-10T13:37:58.732Z,1.50
2022-11-10T13:43:45.804Z,1.20
2022-11-10T13:49:44.838Z,1.50
2022-11-10T13:55:37.754Z,1.10
2022-11-10T14:01:36.749Z,1.10
2022-11-10T14:07:28.874Z,1.42
2022-11-10T14:13:16.805Z,1.40
2022-11-10T14:19:10.793Z,1.02
2022-11-10T14:25:03.757Z,1.35
2022-11-10T14:30:53.768Z,1.50
2022-11-10T14:36:41.068Z,1.50
2022-11-10T14:42:30.775Z,1.25
2022-11-10T14:48:28.032Z,1.40
2022-11-10T14:54:13.757Z,1.50
2022-11-10T14:59:57.798Z,1.50
2022-11-10T15:05:41.989Z,1.65
2022-11-10T15:11:47.811Z,1.52
2022-11-10T15:17:32.810Z,1.40
2022-11-10T15:23:33.609Z,1.30
2022-11-10T15:29:33.798Z,1.60
2022-11-10T15:35:20.788Z,1.40
2022-11-10T15:41:06.808Z,1.27
2022-11-10T15:46:53.833Z,1.30
2022-11-10T15:52:40.817Z,1.48
2022-11-10T15:58:25.289Z,1.30
2022-11-10T16:04:11.800Z,1.35
2022-11-10T16:09:55.823Z,1.60
2022-11-10T16:15:38.850Z,1.52
2022-11-10T16:21:27.802Z,1.40
2022-11-10T16:27:11.923Z,1.42
2022-11-10T16:32:55.842Z,1.55
2022-11-10T16:38:43.814Z,1.40
2022-11-10T16:44:30.059Z,1.48
2022-11-10T16:50:17.846Z,1.75
2022-11-10T16:56:04.227Z,1.42
2022-11-10T17:01:58.972Z,1.60
2022-11-10T17:07:43.841Z,1.85
2022-11-10T17:13:29.914Z,1.73
2022-11-10T17:19:16.862Z,1.70
2022-11-10T17:25:00.860Z,1.77
2022-11-10T17:30:52.851Z,1.60
2022-11-10T17:36:36.870Z,1.70
2022-11-10T17:42:19.895Z,2.45
2022-11-10T17:48:06.997Z,2.20
2022-11-10T17:53:49.872Z,2.67
2022-11-10T17:59:33.861Z,1.80
2022-11-10T18:05:20.875Z,1.75
2022-11-10T18:11:04.989Z,2.00
2022-11-10T18:16:47.868Z,1.60
2022-11-10T18:22:41.897Z,2.08
2022-11-10T18:28:32.046Z,1.77
2022-11-10T18:34:14.910Z,1.70
2022-11-10T18:40:01.917Z,1.60
2022-11-10T18:45:45.896Z,1.95
2022-11-10T18:51:29.870Z,1.80
2022-11-10T18:57:15.888Z,2.00
2022-11-10T19:02:59.302Z,1.80
2022-11-10T19:08:41.909Z,1.90
2022-11-10T19:14:27.903Z,1.90
2022-11-10T19:20:11.895Z,1.67
2022-11-10T19:25:56.201Z,1.73
2022-11-10T19:31:48.060Z,2.22
2022-11-10T19:37:34.437Z,1.77
2022-11-10T19:43:19.114Z,2.00
2022-11-10T19:49:04.915Z,2.20
2022-11-10T19:54:50.025Z,1.90
2022-11-10T20:00:32.955Z,2.13
2022-11-10T20:06:20.034Z,2.00
2022-11-10T20:12:02.961Z,2.00
2022-11-10T20:17:46.961Z,1.70
2022-11-10T20:23:32.932Z,2.17
2022-11-10T20:29:15.932Z,1.55
2022-11-10T20:34:58.955Z,2.20
2022-11-10T20:40:45.362Z,1.92
2022-11-10T20:46:53.629Z,1.98
2022-11-10T20:52:33.965Z,1.75
2022-11-10T20:58:19.978Z,2.15
2022-11-10T21:04:02.974Z,2.10
2022-11-10T21:09:45.988Z,1.80
2022-11-10T21:15:31.954Z,1.95
2022-11-10T21:21:29.961Z,1.88
2022-11-10T21:27:12.977Z,2.80
2022-11-10T21:32:59.955Z,2.20
2022-11-10T21:38:42.995Z,2.20
2022-11-10T21:44:25.969Z,2.00
2022-11-10T21:50:10.965Z,2.25
2022-11-10T21:55:53.990Z,2.00
2022-11-10T22:01:37.109Z,2.00
2022-11-10T22:07:34.957Z,2.10
2022-11-10T22:13:33.013Z,2.00
2022-11-10T22:19:18.024Z,2.20
2022-11-10T22:25:03.983Z,2.40
2022-11-10T22:30:53.025Z,2.20
2022-11-10T22:36:35.991Z,2.25
2022-11-10T22:42:35.159Z,2.05
2022-11-10T22:48:36.015Z,2.10
2022-11-10T22:54:21.021Z,2.40
2022-11-10T23:00:07.025Z,2.08
2022-11-10T23:05:55.074Z,1.98
2022-11-10T23:11:41.008Z,2.13
2022-11-10T23:17:27.006Z,2.00
2022-11-10T23:23:11.026Z,2.30
2022-11-10T23:29:03.043Z,2.17
2022-11-10T23:34:49.041Z,2.00
2022-11-10T23:40:33.033Z,1.90
2022-11-10T23:46:16.049Z,1.85
2022-11-10T23:52:02.041Z,2.05
2022-11-10T23:57:45.022Z,1.70
